createdAt,value
2019-04-20T00:00:06.721Z,4.30
2019-04-20T00:02:34.156Z,4.50
2019-04-20T00:05:03.428Z,4.50
2019-04-20T00:07:34.832Z,4.35
2019-04-20T00:13:54.136Z,4.35
2019-04-20T00:16:13.084Z,4.37
2019-04-20T00:18:48.257Z,3.98
2019-04-20T00:21:29.477Z,4.05
2019-04-20T00:24:01.039Z,4.03
2019-04-20T00:27:00.645Z,3.98
2019-04-20T00:29:21.567Z,4.20
2019-04-20T00:31:48.057Z,4.10
2019-04-20T00:34:09.168Z,3.92
2019-04-20T00:36:30.830Z,4.22
2019-04-20T00:39:03.716Z,4.08
2019-04-20T00:41:29.715Z,4.20
2019-04-20T00:44:04.750Z,3.90
2019-04-20T00:46:35.698Z,4.55
2019-04-20T00:49:06.844Z,4.12
2019-04-20T00:51:44.953Z,4.03
2019-04-20T00:53:59.218Z,3.70
2019-04-20T00:56:28.842Z,3.62
2019-04-20T00:59:10.169Z,3.55
2019-04-20T01:01:50.285Z,3.77
2019-04-20T01:04:17.548Z,3.70
2019-04-20T01:07:01.148Z,4.12
2019-04-20T01:09:20.230Z,4.05
2019-04-20T01:11:50.130Z,4.33
2019-04-20T01:14:28.677Z,4.00
2019-04-20T01:16:57.944Z,4.28
2019-04-20T01:19:19.326Z,4.08
2019-04-20T01:21:53.404Z,4.30
2019-04-20T01:24:24.796Z,3.67
2019-04-20T01:26:53.705Z,4.12
2019-04-20T01:29:29.681Z,3.65
2019-04-20T01:32:03.642Z,4.28
2019-04-20T01:34:34.233Z,3.70
2019-04-20T01:37:05.655Z,4.17
2019-04-20T01:39:28.449Z,4.00
2019-04-20T01:41:49.678Z,4.05
2019-04-20T01:44:26.176Z,4.22
2019-04-20T01:46:54.876Z,4.45
2019-04-20T01:49:22.448Z,3.65
2019-04-20T01:51:57.715Z,4.08
2019-04-20T01:54:31.574Z,4.90
2019-04-20T01:56:58.895Z,4.10
2019-04-20T01:59:31.769Z,4.55
2019-04-20T02:02:14.451Z,4.15
2019-04-20T02:04:46.062Z,4.58
2019-04-20T02:07:11.959Z,4.40
2019-04-20T02:09:48.620Z,4.70
2019-04-20T02:12:15.461Z,4.60
2019-04-20T02:14:45.404Z,4.15
2019-04-20T02:17:25.197Z,5.17
2019-04-20T02:19:59.798Z,4.58
2019-04-20T02:22:30.601Z,4.72
2019-04-20T02:24:40.715Z,4.60
2019-04-20T02:27:10.251Z,4.75
2019-04-20T02:29:58.513Z,4.92
2019-04-20T02:32:36.555Z,4.83
2019-04-20T02:35:07.249Z,4.85
2019-04-20T02:37:58.418Z,5.33
2019-04-20T02:40:15.729Z,5.00
2019-04-20T02:42:51.447Z,5.12
2019-04-20T02:45:27.143Z,5.17
2019-04-20T02:47:47.371Z,5.53
2019-04-20T02:50:19.184Z,5.30
2019-04-20T02:55:15.160Z,5.08
2019-04-20T02:57:53.063Z,4.78
2019-04-20T03:00:12.449Z,5.00
2019-04-20T03:02:33.443Z,5.00
2019-04-20T03:04:56.157Z,4.90
2019-04-20T03:07:30.411Z,4.95
2019-04-20T03:10:08.413Z,5.20
2019-04-20T03:12:38.351Z,5.30
2019-04-20T03:14:59.740Z,5.42
2019-04-20T03:17:38.752Z,5.20
2019-04-20T03:19:59.556Z,5.25
2019-04-20T03:22:51.242Z,5.60
2019-04-20T03:25:13.561Z,6.22
2019-04-20T03:27:41.043Z,5.20
2019-04-20T03:30:39.701Z,5.30
2019-04-20T03:33:05.955Z,5.20
2019-04-20T03:35:20.020Z,5.20
2019-04-20T03:37:44.237Z,5.70
2019-04-20T03:40:08.311Z,5.12
2019-04-20T03:42:26.727Z,5.85
2019-04-20T03:45:00.476Z,5.70
2019-04-20T03:47:35.927Z,5.60
2019-04-20T03:50:22.416Z,6.03
2019-04-20T03:52:49.712Z,5.42
2019-04-20T03:55:19.887Z,5.12
2019-04-20T03:58:03.451Z,6.53
2019-04-20T04:00:31.727Z,5.17
2019-04-20T04:03:21.517Z,5.60
2019-04-20T04:05:36.945Z,5.22
2019-04-20T04:08:01.018Z,5.92
2019-04-20T04:10:31.660Z,5.03
2019-04-20T04:13:14.764Z,5.42
2019-04-20T04:15:50.074Z,5.55
2019-04-20T04:18:21.947Z,5.65
2019-04-20T04:20:52.192Z,6.03
2019-04-20T04:23:35.635Z,5.65
2019-04-20T04:26:05.896Z,6.12
2019-04-20T04:28:35.120Z,5.87
2019-04-20T04:31:04.099Z,6.40
2019-04-20T04:36:00.553Z,5.80
2019-04-20T04:38:39.591Z,6.20
2019-04-20T04:43:36.305Z,9.20
2019-04-20T04:45:44.919Z,11.08
2019-04-20T04:48:21.282Z,16.60
2019-04-20T04:50:50.900Z,10.88
2019-04-20T04:53:27.208Z,6.17
2019-04-20T05:02:37.336Z,5.97
2019-04-20T05:05:30.993Z,13.25
2019-04-20T05:07:53.140Z,6.62
2019-04-20T05:10:12.048Z,5.70
2019-04-20T05:12:41.015Z,19.12
2019-04-20T05:15:23.038Z,9.85
2019-04-20T05:18:02.121Z,7.78
2019-04-20T05:20:28.125Z,7.62
2019-04-20T05:23:12.675Z,7.05
2019-04-20T05:25:59.613Z,6.42
2019-04-20T05:28:16.799Z,6.78
2019-04-20T05:30:46.899Z,7.62
2019-04-20T05:33:21.333Z,6.92
2019-04-20T05:36:01.815Z,6.22
2019-04-20T05:38:37.108Z,5.90
2019-04-20T05:40:55.798Z,6.40
2019-04-20T05:43:41.484Z,5.30
2019-04-20T05:46:16.913Z,5.95
2019-04-20T05:48:45.777Z,6.17
2019-04-20T05:51:21.127Z,6.10
2019-04-20T05:53:45.763Z,7.85
2019-04-20T05:56:17.319Z,6.20
2019-04-20T05:58:45.416Z,7.10
2019-04-20T06:01:22.839Z,7.30
2019-04-20T06:03:42.551Z,8.80
2019-04-20T06:06:15.214Z,6.25
2019-04-20T06:08:58.014Z,5.42
2019-04-20T06:11:24.600Z,6.65
2019-04-20T06:13:47.060Z,5.35
2019-04-20T06:16:31.061Z,5.55
2019-04-20T06:19:11.301Z,5.97
2019-04-20T06:21:37.826Z,5.95
2019-04-20T06:24:20.696Z,6.10
2019-04-20T06:26:54.156Z,5.80
2019-04-20T06:29:16.993Z,5.53
2019-04-20T06:31:45.438Z,5.15
2019-04-20T06:34:30.119Z,6.12
2019-04-20T06:36:55.840Z,5.45
2019-04-20T06:39:29.192Z,5.53
2019-04-20T06:44:30.300Z,5.65
2019-04-20T06:47:08.919Z,5.60
2019-04-20T06:49:31.450Z,5.50
2019-04-20T06:52:15.417Z,5.42
2019-04-20T06:54:48.308Z,5.25
2019-04-20T06:57:25.635Z,6.08
2019-04-20T06:59:53.706Z,5.67
2019-04-20T07:07:36.271Z,5.55
2019-04-20T07:09:59.849Z,5.15
2019-04-20T07:12:17.033Z,5.37
2019-04-20T07:14:45.436Z,5.25
2019-04-20T07:17:39.270Z,5.12
2019-04-20T07:19:58.887Z,4.78
2019-04-20T07:22:33.593Z,5.42
2019-04-20T07:25:01.073Z,4.80
2019-04-20T07:27:33.638Z,7.00
2019-04-20T07:30:03.981Z,5.50
2019-04-20T07:32:38.777Z,4.67
2019-04-20T07:35:03.364Z,4.78
2019-04-20T07:37:59.478Z,4.75
2019-04-20T07:40:10.370Z,4.97
2019-04-20T07:42:43.802Z,4.72
2019-04-20T07:45:08.744Z,4.78
2019-04-20T07:47:40.555Z,4.67
2019-04-20T07:50:05.041Z,4.65
2019-04-20T07:52:24.347Z,4.37
2019-04-20T07:55:26.361Z,6.70
2019-04-20T07:57:34.019Z,6.10
2019-04-20T08:00:06.347Z,5.15
2019-04-20T08:02:43.595Z,5.20
2019-04-20T08:05:05.985Z,7.72
2019-04-20T08:07:36.096Z,5.12
2019-04-20T08:09:57.413Z,5.72
2019-04-20T08:12:55.738Z,4.95
2019-04-20T08:15:32.444Z,4.62
2019-04-20T08:17:56.454Z,4.80
2019-04-20T08:20:22.035Z,4.97
2019-04-20T08:22:55.239Z,4.90
2019-04-20T08:25:14.303Z,5.08
2019-04-20T08:27:50.848Z,6.62
2019-04-20T08:30:46.605Z,5.20
2019-04-20T08:36:51.422Z,5.10
2019-04-20T08:41:57.568Z,4.92
2019-04-20T08:47:06.092Z,4.97
2019-04-20T08:49:26.484Z,4.55
2019-04-20T08:52:08.258Z,5.47
2019-04-20T08:57:31.312Z,5.03
2019-04-20T09:00:03.135Z,7.62
2019-04-20T09:02:30.484Z,4.97
2019-04-20T09:05:04.911Z,5.37
2019-04-20T09:07:32.051Z,5.80
2019-04-20T09:10:24.283Z,4.95
2019-04-20T09:12:49.154Z,5.10
2019-04-20T09:14:59.688Z,4.78
2019-04-20T09:17:35.594Z,5.70
2019-04-20T09:20:09.608Z,5.37
2019-04-20T09:22:46.958Z,4.87
2019-04-20T09:25:44.433Z,4.80
2019-04-20T09:27:45.860Z,5.65
2019-04-20T09:30:25.947Z,5.17
2019-04-20T09:33:05.915Z,5.40
2019-04-20T09:35:30.188Z,5.25
2019-04-20T09:38:06.120Z,5.25
2019-04-20T09:40:35.273Z,5.28
2019-04-20T09:42:56.220Z,5.67
2019-04-20T09:45:34.995Z,4.67
2019-04-20T09:47:57.119Z,5.33
2019-04-20T09:50:46.304Z,5.30
2019-04-20T09:53:16.707Z,5.50
2019-04-20T09:55:44.490Z,5.10
2019-04-20T09:58:12.361Z,5.37
2019-04-20T10:00:54.120Z,5.28
2019-04-20T10:03:12.923Z,4.95
2019-04-20T10:05:41.548Z,5.72
2019-04-20T10:08:11.397Z,5.37
2019-04-20T10:10:42.643Z,5.17
2019-04-20T10:13:11.205Z,5.17
2019-04-20T10:15:39.774Z,5.42
2019-04-20T10:18:08.152Z,5.30
2019-04-20T10:20:38.916Z,5.87
2019-04-20T10:23:06.763Z,5.42
2019-04-20T10:25:36.317Z,5.17
2019-04-20T10:28:05.526Z,5.80
2019-04-20T10:30:34.692Z,5.58
2019-04-20T10:33:03.562Z,3.95
2019-04-20T10:35:32.067Z,5.55
2019-04-20T10:38:07.359Z,6.42
2019-04-20T10:40:46.418Z,5.47
2019-04-20T10:43:09.845Z,5.30
2019-04-20T10:45:39.551Z,5.53
2019-04-20T10:48:10.870Z,5.15
2019-04-20T10:50:39.330Z,5.42
2019-04-20T10:53:07.987Z,5.20
2019-04-20T10:55:37.640Z,5.47
2019-04-20T10:58:07.350Z,5.40
2019-04-20T11:00:41.943Z,5.50
2019-04-20T11:03:11.575Z,5.00
2019-04-20T11:05:42.565Z,4.90
2019-04-20T11:08:12.770Z,4.70
2019-04-20T11:10:55.434Z,5.80
2019-04-20T11:13:11.906Z,4.58
2019-04-20T11:15:40.288Z,5.20
2019-04-20T11:18:09.254Z,4.55
2019-04-20T11:20:37.707Z,5.10
2019-04-20T11:23:06.605Z,4.90
2019-04-20T11:25:35.046Z,4.67
2019-04-20T11:28:04.035Z,4.72
2019-04-20T11:30:32.370Z,5.42
2019-04-20T11:33:00.738Z,4.60
2019-04-20T11:35:34.383Z,4.58
2019-04-20T11:38:00.864Z,4.40
2019-04-20T11:40:30.596Z,5.00
2019-04-20T11:42:59.646Z,4.78
2019-04-20T11:45:28.808Z,4.80
2019-04-20T11:47:57.783Z,4.67
2019-04-20T11:50:27.400Z,4.80
2019-04-20T11:52:57.187Z,4.90
2019-04-20T11:55:26.615Z,5.25
2019-04-20T11:57:56.221Z,4.90
2019-04-20T12:00:27.865Z,4.55
2019-04-20T12:03:15.898Z,4.47
2019-04-20T12:05:45.951Z,5.05
2019-04-20T12:08:11.078Z,4.78
2019-04-20T12:10:43.615Z,4.67
2019-04-20T12:13:10.843Z,4.72
2019-04-20T12:15:39.751Z,4.72
2019-04-20T12:18:09.403Z,5.97
2019-04-20T12:20:38.917Z,4.45
2019-04-20T12:23:08.530Z,4.47
2019-04-20T12:25:39.328Z,4.28
2019-04-20T12:28:07.450Z,4.35
2019-04-20T12:30:35.882Z,4.70
2019-04-20T12:33:05.637Z,4.50
2019-04-20T12:35:35.861Z,4.10
2019-04-20T12:38:07.201Z,4.17
2019-04-20T12:40:37.811Z,4.30
2019-04-20T12:43:06.844Z,4.45
2019-04-20T12:45:35.671Z,4.60
2019-04-20T12:48:04.243Z,4.83
2019-04-20T12:54:02.578Z,4.28
2019-04-20T12:56:31.140Z,4.17
2019-04-20T12:58:59.840Z,4.03
2019-04-20T13:01:28.260Z,4.33
2019-04-20T13:03:57.411Z,4.33
2019-04-20T13:06:25.901Z,4.30
2019-04-20T13:08:58.409Z,4.17
2019-04-20T13:11:26.709Z,4.67
2019-04-20T13:14:12.483Z,4.30
2019-04-20T13:16:40.891Z,4.20
2019-04-20T13:19:09.251Z,4.45
2019-04-20T13:21:38.925Z,4.87
2019-04-20T13:27:49.317Z,4.55
2019-04-20T13:30:19.618Z,4.35
2019-04-20T13:32:48.199Z,4.22
2019-04-20T13:35:16.566Z,4.90
2019-04-20T13:37:45.199Z,4.35
2019-04-20T13:40:15.698Z,4.62
2019-04-20T13:42:44.037Z,3.95
2019-04-20T13:45:12.928Z,4.92
2019-04-20T13:47:41.424Z,4.08
2019-04-20T13:50:12.557Z,4.42
2019-04-20T13:52:40.694Z,4.50
2019-04-20T13:55:09.052Z,4.90
2019-04-20T13:57:55.878Z,4.67
2019-04-20T14:00:52.463Z,3.85
2019-04-20T14:03:22.840Z,4.55
2019-04-20T14:05:51.432Z,4.62
2019-04-20T14:08:23.316Z,5.25
2019-04-20T14:10:51.651Z,5.28
2019-04-20T14:13:22.098Z,5.65
2019-04-20T14:15:50.989Z,5.30
2019-04-20T14:18:19.804Z,6.15
2019-04-20T14:20:48.180Z,6.40
2019-04-20T14:23:17.064Z,5.72
2019-04-20T14:25:46.963Z,5.30
2019-04-20T14:28:15.581Z,5.97
2019-04-20T14:30:43.955Z,5.50
2019-04-20T14:33:12.868Z,5.80
2019-04-20T14:35:41.368Z,5.05
2019-04-20T14:38:09.890Z,5.22
2019-04-20T14:40:38.291Z,5.60
2019-04-20T14:43:06.875Z,5.90
2019-04-20T14:45:36.539Z,5.72
2019-04-20T14:48:05.791Z,5.87
2019-04-20T14:50:34.273Z,6.22
2019-04-20T14:53:02.649Z,6.10
2019-04-20T14:55:31.341Z,4.60
2019-04-20T14:58:01.626Z,5.58
2019-04-20T15:00:51.320Z,5.72
2019-04-20T15:03:30.581Z,4.97
2019-04-20T15:06:00.088Z,5.30
2019-04-20T15:08:28.520Z,5.25
2019-04-20T15:10:58.769Z,5.45
2019-04-20T15:13:28.741Z,5.33
2019-04-20T15:15:57.266Z,6.28
2019-04-20T15:18:33.875Z,5.50
2019-04-20T15:21:07.728Z,5.33
2019-04-20T15:23:37.363Z,10.53
2019-04-20T15:29:34.230Z,5.55
2019-04-20T15:32:04.065Z,6.30
2019-04-20T15:34:32.983Z,5.62
2019-04-20T15:37:02.488Z,5.90
2019-04-20T15:39:32.897Z,5.60
2019-04-20T15:42:01.445Z,5.58
2019-04-20T15:47:59.534Z,5.05
2019-04-20T15:50:28.004Z,4.53
2019-04-20T15:52:57.377Z,5.20
2019-04-20T15:55:31.032Z,5.22
2019-04-20T15:57:57.652Z,5.65
2019-04-20T16:00:26.695Z,5.12
2019-04-20T16:03:03.360Z,5.17
2019-04-20T16:05:37.676Z,5.05
2019-04-20T16:08:23.686Z,4.92
2019-04-20T16:10:53.085Z,4.95
2019-04-20T16:13:27.825Z,4.97
2019-04-20T16:15:51.744Z,4.75
2019-04-20T16:18:20.937Z,4.75
2019-04-20T16:20:58.079Z,5.78
2019-04-20T16:23:20.788Z,5.10
2019-04-20T16:25:53.742Z,4.72
2019-04-20T16:28:23.664Z,4.70
2019-04-20T16:30:52.172Z,4.80
2019-04-20T16:33:20.719Z,4.92
2019-04-20T16:35:50.165Z,5.50
2019-04-20T16:38:18.588Z,5.10
2019-04-20T16:40:48.338Z,6.10
2019-04-20T16:43:25.941Z,7.50
2019-04-20T16:45:47.399Z,5.85
2019-04-20T16:48:16.194Z,5.67
2019-04-20T16:50:45.134Z,5.70
2019-04-20T16:53:14.916Z,5.90
2019-04-20T16:55:43.477Z,5.78
2019-04-20T16:58:11.848Z,5.40
2019-04-20T17:00:41.262Z,5.37
2019-04-20T17:03:11.075Z,6.60
2019-04-20T17:05:41.293Z,6.25
2019-04-20T17:08:11.054Z,5.90
2019-04-20T17:10:39.527Z,5.55
2019-04-20T17:13:07.902Z,6.00
2019-04-20T17:15:37.307Z,5.90
2019-04-20T17:18:05.860Z,5.92
2019-04-20T17:20:34.722Z,5.58
2019-04-20T17:23:05.610Z,5.72
2019-04-20T17:25:34.355Z,5.83
2019-04-20T17:28:14.948Z,5.03
2019-04-20T17:31:03.090Z,5.78
2019-04-20T17:33:47.376Z,5.15
2019-04-20T17:36:12.449Z,5.80
2019-04-20T17:38:41.979Z,5.92
2019-04-20T17:41:23.771Z,5.90
2019-04-20T17:43:57.571Z,6.12
2019-04-20T17:46:17.594Z,5.50
2019-04-20T17:48:51.173Z,5.28
2019-04-20T17:51:28.679Z,5.80
2019-04-20T17:53:49.070Z,5.45
2019-04-20T17:56:12.159Z,5.42
2019-04-20T17:58:41.346Z,5.65
2019-04-20T18:01:42.356Z,5.80
2019-04-20T18:04:31.088Z,5.47
2019-04-20T18:06:44.095Z,5.40
2019-04-20T18:09:17.924Z,5.20
2019-04-20T18:11:39.866Z,4.67
2019-04-20T18:14:16.909Z,4.80
2019-04-20T18:20:16.791Z,5.03
2019-04-20T18:22:50.493Z,5.60
2019-04-20T18:25:41.799Z,9.30
2019-04-20T18:27:59.670Z,8.85
2019-04-20T18:30:43.695Z,9.38
2019-04-20T18:33:03.612Z,10.88
2019-04-20T18:35:34.917Z,14.98
2019-04-20T18:38:07.702Z,13.70
2019-04-20T18:40:42.781Z,13.13
2019-04-20T18:43:10.298Z,8.13
2019-04-20T18:45:56.962Z,7.47
2019-04-20T18:48:15.975Z,8.35
2019-04-20T18:50:39.725Z,7.62
2019-04-20T18:53:03.235Z,7.55
2019-04-20T18:55:41.664Z,7.08
2019-04-20T18:58:01.765Z,7.62
2019-04-20T19:00:33.884Z,7.67
2019-04-20T19:03:09.330Z,7.00
2019-04-20T19:05:31.547Z,6.87
2019-04-20T19:08:06.226Z,6.85
2019-04-20T19:10:35.011Z,7.62
2019-04-20T19:13:05.854Z,6.97
2019-04-20T19:15:55.224Z,9.88
2019-04-20T19:18:20.930Z,7.53
2019-04-20T19:20:40.963Z,6.67
2019-04-20T19:23:10.333Z,6.97
2019-04-20T19:25:40.976Z,6.80
2019-04-20T19:28:09.211Z,7.50
2019-04-20T19:30:47.009Z,8.18
2019-04-20T19:33:24.618Z,8.83
2019-04-20T19:35:51.738Z,8.40
2019-04-20T19:38:17.014Z,8.05
2019-04-20T19:40:52.571Z,7.60
2019-04-20T19:43:20.584Z,8.98
2019-04-20T19:46:15.497Z,10.55
2019-04-20T19:48:22.000Z,10.08
2019-04-20T19:51:06.917Z,9.35
2019-04-20T19:53:31.867Z,8.55
2019-04-20T19:55:54.777Z,8.65
2019-04-20T19:58:25.285Z,10.23
2019-04-20T20:00:49.100Z,7.92
2019-04-20T20:03:17.430Z,7.12
2019-04-20T20:05:48.396Z,7.78
2019-04-20T20:08:20.918Z,8.43
2019-04-20T20:10:45.971Z,8.15
2019-04-20T20:13:14.954Z,7.70
2019-04-20T20:15:45.090Z,7.80
2019-04-20T20:18:30.689Z,8.33
2019-04-20T20:21:00.890Z,8.15
2019-04-20T20:23:14.277Z,8.33
2019-04-20T20:25:47.436Z,8.58
2019-04-20T20:28:25.493Z,9.73
2019-04-20T20:30:56.612Z,9.00
2019-04-20T20:33:29.401Z,8.43
2019-04-20T20:35:52.979Z,8.03
2019-04-20T20:38:19.048Z,9.28
2019-04-20T20:40:54.836Z,8.95
2019-04-20T20:43:22.622Z,9.43
2019-04-20T20:46:00.136Z,8.73
2019-04-20T20:48:29.708Z,9.15
2019-04-20T20:51:05.143Z,8.25
2019-04-20T20:53:21.942Z,8.53
2019-04-20T20:55:47.634Z,8.00
2019-04-20T20:58:19.186Z,8.28
2019-04-20T21:00:54.016Z,8.45
2019-04-20T21:03:22.165Z,7.95
2019-04-20T21:05:45.362Z,7.95
2019-04-20T21:08:15.648Z,7.90
2019-04-20T21:10:45.994Z,7.90
2019-04-20T21:13:15.489Z,8.70
2019-04-20T21:15:45.423Z,8.05
2019-04-20T21:18:34.853Z,7.62
2019-04-20T21:21:01.017Z,7.37
2019-04-20T21:23:28.687Z,6.92
2019-04-20T21:26:03.974Z,7.72
2019-04-20T21:28:35.791Z,7.85
2019-04-20T21:31:10.547Z,7.95
2019-04-20T21:33:36.131Z,6.67
2019-04-20T21:41:59.055Z,7.90
2019-04-20T21:44:28.741Z,8.35
2019-04-20T21:46:54.704Z,6.70
2019-04-20T21:49:37.588Z,6.10
2019-04-20T21:51:58.571Z,6.42
2019-04-20T21:54:22.702Z,6.58
2019-04-20T21:56:56.145Z,6.92
2019-04-20T21:59:30.613Z,8.30
2019-04-20T22:01:58.474Z,8.98
2019-04-20T22:04:22.895Z,8.43
2019-04-20T22:06:52.116Z,8.18
2019-04-20T22:09:23.985Z,7.10
2019-04-20T22:18:49.520Z,6.72
2019-04-20T22:21:19.866Z,6.97
2019-04-20T22:23:57.222Z,6.62
2019-04-20T22:26:18.614Z,7.15
2019-04-20T22:28:38.155Z,7.40
2019-04-20T22:31:08.186Z,7.33
2019-04-20T22:33:41.168Z,6.80
2019-04-20T22:36:10.827Z,6.92
2019-04-20T22:38:59.783Z,6.70
2019-04-20T22:41:27.929Z,6.17
2019-04-20T22:43:56.681Z,6.33
2019-04-20T22:46:33.208Z,6.17
2019-04-20T22:49:14.333Z,6.45
2019-04-20T22:51:40.009Z,6.08
2019-04-20T22:54:12.939Z,6.55
2019-04-20T22:56:38.305Z,5.85
2019-04-20T22:59:02.118Z,7.03
2019-04-20T23:01:32.150Z,6.80
2019-04-20T23:03:55.233Z,7.47
2019-04-20T23:06:25.299Z,7.62
2019-04-20T23:08:59.619Z,8.98
2019-04-20T23:11:28.362Z,8.20
2019-04-20T23:13:53.625Z,8.25
2019-04-20T23:16:22.946Z,8.25
2019-04-20T23:18:52.020Z,7.97
2019-04-20T23:21:21.605Z,8.00
2019-04-20T23:23:53.673Z,7.58
2019-04-20T23:26:25.543Z,7.80
2019-04-20T23:28:55.227Z,7.55
2019-04-20T23:31:23.578Z,8.23
2019-04-20T23:33:50.168Z,8.80
2019-04-20T23:36:26.669Z,8.58
2019-04-20T23:38:53.808Z,10.78
2019-04-20T23:41:19.663Z,9.98
2019-04-20T23:43:54.028Z,9.90
2019-04-20T23:46:30.194Z,10.23
2019-04-20T23:49:23.230Z,9.43
2019-04-20T23:52:08.650Z,11.20
2019-04-20T23:54:22.053Z,10.35
2019-04-20T23:56:45.838Z,10.93
2019-04-20T23:59:14.786Z,10.35
